Time;durP1;ratioP1;P1;durP2;ratioP2;P2;SDS_P1;SDS_P2;PMS_P1;PMS_P2;Temp;Humidity;BMP_temperature;BMP_pressure;BME280_temperature;BME280_humidity;BME280_pressure;Samples;Min_cycle;Max_cycle;Signal;HPM_P1;HPM_P2
2022/07/23 00:01:34;;;;;;;12.50;6.30;;;;;;;16.90;100.00;101493.28;5068473;28;20032;-77
2022/07/23 00:04:00;;;;;;;13.70;6.35;;;;;;;16.82;100.00;101490.34;5091321;28;20057;-77
2022/07/23 00:06:25;;;;;;;13.60;5.80;;;;;;;16.63;100.00;101491.25;5050624;28;20756;-79
2022/07/23 00:08:51;;;;;;;7.82;5.93;;;;;;;16.75;100.00;101500.28;5065743;28;20041;-78
2022/07/23 00:11:17;;;;;;;9.23;6.07;;;;;;;16.70;100.00;101501.56;5095246;28;20036;-80
2022/07/23 00:13:43;;;;;;;14.15;6.45;;;;;;;16.64;100.00;101496.63;5086069;28;20049;-79
2022/07/23 00:16:09;;;;;;;10.80;6.57;;;;;;;16.70;100.00;101492.41;5079359;28;20032;-78
2022/07/23 00:18:35;;;;;;;12.55;6.70;;;;;;;16.59;100.00;101498.06;5093066;28;20064;-78
2022/07/23 00:21:00;;;;;;;9.68;6.13;;;;;;;16.62;100.00;101495.88;5066502;28;20028;-78
2022/07/23 00:23:28;;;;;;;12.77;6.78;;;;;;;16.55;100.00;101491.97;5079864;28;20055;-78
2022/07/23 00:25:53;;;;;;;12.70;6.55;;;;;;;16.56;100.00;101488.19;5057416;28;20111;-79
2022/07/23 00:28:19;;;;;;;10.70;6.35;;;;;;;16.50;100.00;101489.63;5083100;28;20505;-78
2022/07/23 00:30:45;;;;;;;12.40;6.07;;;;;;;16.33;100.00;101488.47;5098916;28;20059;-80
2022/07/23 00:33:11;;;;;;;12.30;6.80;;;;;;;16.35;100.00;101493.84;5099598;28;20475;-78
2022/07/23 00:35:42;;;;;;;13.70;6.82;;;;;;;16.31;100.00;101496.00;5076845;28;20059;-81
2022/07/23 00:38:09;;;;;;;10.32;7.07;;;;;;;16.27;100.00;101497.31;5048818;28;20059;-78
2022/07/23 00:40:36;;;;;;;14.02;6.28;;;;;;;16.19;100.00;101486.09;5084012;28;20023;-79
2022/07/23 00:43:03;;;;;;;16.25;7.40;;;;;;;16.23;100.00;101495.84;5076065;28;20032;-78
2022/07/23 00:45:30;;;;;;;13.48;7.28;;;;;;;16.24;100.00;101500.38;5099692;28;20056;-79
2022/07/23 00:47:55;;;;;;;11.85;7.50;;;;;;;16.25;100.00;101502.13;5070684;28;20035;-79
2022/07/23 00:50:21;;;;;;;13.23;7.65;;;;;;;15.98;100.00;101494.50;5065228;28;20036;-80
2022/07/23 00:52:48;;;;;;;11.15;7.28;;;;;;;15.95;100.00;101503.06;5090429;28;20042;-79
2022/07/23 00:55:14;;;;;;;14.45;6.93;;;;;;;16.03;100.00;101483.03;5067096;28;20106;-79
2022/07/23 00:57:41;;;;;;;10.25;7.05;;;;;;;16.10;100.00;101498.00;5078199;28;20445;-81
2022/07/23 01:00:11;;;;;;;12.98;7.55;;;;;;;16.16;100.00;101497.44;5077527;28;20384;-79
2022/07/23 01:02:37;;;;;;;12.18;7.57;;;;;;;16.09;100.00;101488.00;5079432;28;20163;-78
2022/07/23 01:05:04;;;;;;;14.25;7.90;;;;;;;16.19;100.00;101490.78;5090024;28;20497;-78
2022/07/23 01:07:33;;;;;;;13.60;8.35;;;;;;;16.03;100.00;101489.41;5059956;28;20480;-79
2022/07/23 01:10:00;;;;;;;14.48;8.40;;;;;;;16.01;100.00;101487.81;5093331;28;20028;-80
2022/07/23 01:12:25;;;;;;;14.10;8.75;;;;;;;15.95;100.00;101490.13;5082163;28;20044;-80
2022/07/23 01:14:59;;;;;;;10.32;7.80;;;;;;;16.08;100.00;101487.09;5079255;28;20041;-80
2022/07/23 01:17:25;;;;;;;14.80;8.32;;;;;;;15.95;100.00;101476.34;5057988;28;20060;-81
2022/07/23 01:19:50;;;;;;;15.38;8.07;;;;;;;15.80;100.00;101480.47;5062744;28;20027;-81
2022/07/23 01:22:19;;;;;;;14.20;8.50;;;;;;;15.76;100.00;101485.41;5071282;28;20032;-78
2022/07/23 01:24:45;;;;;;;15.35;8.65;;;;;;;15.62;100.00;101480.25;5087505;28;20039;-80
2022/07/23 01:27:12;;;;;;;16.00;8.40;;;;;;;15.41;100.00;101481.19;5083527;28;20177;-79
2022/07/23 01:29:38;;;;;;;11.65;8.15;;;;;;;15.49;100.00;101477.72;5069854;28;20049;-78
2022/07/23 01:32:05;;;;;;;18.90;8.73;;;;;;;15.43;100.00;101481.03;5086661;28;20036;-78
2022/07/23 01:34:30;;;;;;;14.55;8.32;;;;;;;15.41;100.00;101483.03;5077578;28;20024;-80
2022/07/23 01:36:56;;;;;;;19.33;8.18;;;;;;;15.46;100.00;101464.19;5083588;28;20032;-79
2022/07/23 01:39:21;;;;;;;16.73;8.85;;;;;;;15.49;100.00;101482.38;5084640;28;20036;-79
2022/07/23 01:41:47;;;;;;;14.55;8.77;;;;;;;15.46;100.00;101483.50;5089989;28;20028;-79
2022/07/23 01:44:13;;;;;;;17.90;9.65;;;;;;;15.53;100.00;101476.44;5048636;28;20190;-78
2022/07/23 01:46:38;;;;;;;9.55;8.38;;;;;;;15.56;100.00;101483.53;5065059;28;20040;-79
2022/07/23 01:49:04;;;;;;;15.82;9.60;;;;;;;15.60;100.00;101487.78;5074892;28;20109;-80
2022/07/23 01:51:30;;;;;;;15.68;9.15;;;;;;;15.63;100.00;101482.84;5094476;28;20024;-79
2022/07/23 01:53:55;;;;;;;18.70;9.52;;;;;;;15.58;100.00;101476.88;5092156;28;20480;-79
2022/07/23 01:56:21;;;;;;;17.13;9.27;;;;;;;15.57;100.00;101475.13;5080776;28;20069;-80
2022/07/23 01:58:48;;;;;;;12.82;9.27;;;;;;;15.51;100.00;101467.44;5094404;28;20067;-79
2022/07/23 02:01:14;;;;;;;13.18;8.98;;;;;;;15.41;100.00;101470.13;5078086;28;20426;-79
2022/07/23 02:03:39;;;;;;;16.98;9.25;;;;;;;15.36;100.00;101475.16;5067082;28;20033;-78
2022/07/23 02:06:05;;;;;;;11.77;9.55;;;;;;;15.47;100.00;101485.25;5085426;28;20093;-79
2022/07/23 02:08:31;;;;;;;14.00;9.63;;;;;;;15.49;100.00;101463.91;5071392;28;20411;-79
2022/07/23 02:10:56;;;;;;;18.98;10.18;;;;;;;15.30;100.00;101463.81;5063139;28;20028;-78
2022/07/23 02:13:22;;;;;;;13.05;9.50;;;;;;;15.25;100.00;101461.50;5087449;28;20032;-79
2022/07/23 02:15:47;;;;;;;13.70;9.70;;;;;;;15.43;100.00;101467.25;5075061;28;20039;-80
2022/07/23 02:18:13;;;;;;;14.45;9.70;;;;;;;15.43;100.00;101461.72;5076115;28;20377;-79
2022/07/23 02:20:39;;;;;;;17.63;10.00;;;;;;;15.34;100.00;101462.53;5078797;28;20025;-79
2022/07/23 02:23:06;;;;;;;15.65;9.60;;;;;;;15.26;100.00;101463.22;5078426;28;20066;-80
2022/07/23 02:25:32;;;;;;;18.02;9.80;;;;;;;15.21;100.00;101466.38;5078566;28;20040;-80
2022/07/23 02:27:58;;;;;;;17.70;10.05;;;;;;;15.17;100.00;101467.69;5087902;28;20036;-80
2022/07/23 02:30:24;;;;;;;13.40;9.93;;;;;;;15.26;100.00;101468.75;5042455;28;20362;-80
2022/07/23 02:32:50;;;;;;;13.80;9.30;;;;;;;15.27;100.00;101462.22;5076227;28;20044;-80
2022/07/23 02:35:16;;;;;;;15.48;10.50;;;;;;;15.13;100.00;101468.09;5090693;28;20108;-79
2022/07/23 02:37:41;;;;;;;14.90;10.45;;;;;;;14.98;100.00;101457.41;5053550;28;20047;-81
2022/07/23 02:40:07;;;;;;;16.95;10.85;;;;;;;15.10;100.00;101469.22;5092472;28;20025;-79
2022/07/23 02:42:32;;;;;;;18.70;10.27;;;;;;;15.10;100.00;101460.94;5092358;28;20051;-79
2022/07/23 02:44:58;;;;;;;14.88;10.27;;;;;;;15.01;100.00;101459.03;5095368;28;20040;-80
2022/07/23 02:47:23;;;;;;;16.83;10.55;;;;;;;15.10;100.00;101465.59;5078763;28;20048;-78
2022/07/23 02:49:49;;;;;;;18.02;10.25;;;;;;;14.95;100.00;101460.41;5076092;28;20039;-79
2022/07/23 02:52:14;;;;;;;18.48;9.75;;;;;;;14.97;100.00;101452.00;5072062;28;20048;-80
2022/07/23 02:54:40;;;;;;;13.50;10.27;;;;;;;14.91;100.00;101460.84;5076873;28;20040;-79
2022/07/23 02:57:05;;;;;;;15.48;9.40;;;;;;;14.95;100.00;101462.31;5075379;28;20040;-79
2022/07/23 02:59:31;;;;;;;18.85;10.65;;;;;;;14.74;100.00;101465.97;5094363;28;20044;-79
2022/07/23 03:01:56;;;;;;;19.98;10.23;;;;;;;14.72;100.00;101458.81;5094599;28;20031;-80
2022/07/23 03:04:22;;;;;;;17.45;10.52;;;;;;;14.70;100.00;101461.72;5079931;28;20093;-78
2022/07/23 03:06:48;;;;;;;16.70;10.75;;;;;;;14.67;100.00;101467.47;5058781;28;20131;-80
2022/07/23 03:09:13;;;;;;;15.73;10.93;;;;;;;14.66;100.00;101463.00;5058463;28;20549;-80
2022/07/23 03:11:39;;;;;;;18.67;10.80;;;;;;;14.74;100.00;101470.59;5086190;28;20042;-80
2022/07/23 03:14:05;;;;;;;15.35;10.00;;;;;;;14.72;100.00;101472.59;5078402;28;20051;-80
2022/07/23 03:16:31;;;;;;;16.10;10.75;;;;;;;14.62;100.00;101473.38;5094679;28;20375;-77
2022/07/23 03:18:56;;;;;;;15.55;11.43;;;;;;;14.72;100.00;101470.72;5069571;28;20087;-77
2022/07/23 03:21:22;;;;;;;28.02;10.75;;;;;;;14.60;100.00;101472.66;5087139;28;20032;-78
2022/07/23 03:23:47;;;;;;;20.38;10.85;;;;;;;14.65;100.00;101473.13;5063585;28;20066;-78
2022/07/23 03:26:13;;;;;;;19.30;10.75;;;;;;;14.68;100.00;101483.03;5099052;28;20040;-79
2022/07/23 03:28:38;;;;;;;19.30;10.98;;;;;;;14.68;100.00;101486.66;5080207;28;20116;-78
2022/07/23 03:31:04;;;;;;;21.00;11.48;;;;;;;14.53;100.00;101477.78;5075233;28;20055;-79
2022/07/23 03:33:29;;;;;;;14.50;10.85;;;;;;;14.57;100.00;101486.66;5067498;28;20058;-79
2022/07/23 03:35:55;;;;;;;17.80;10.75;;;;;;;14.52;100.00;101483.44;5078020;28;20043;-79
2022/07/23 03:38:21;;;;;;;19.77;11.23;;;;;;;14.60;100.00;101480.94;5092509;28;20036;-78
2022/07/23 03:40:46;;;;;;;16.73;11.07;;;;;;;14.57;100.00;101492.19;5097466;28;20063;-79
2022/07/23 03:43:13;;;;;;;20.55;11.52;;;;;;;14.37;100.00;101485.63;5086463;28;20024;-79
2022/07/23 03:45:38;;;;;;;18.60;11.07;;;;;;;14.49;100.00;101486.44;5085686;28;20452;-79
2022/07/23 03:48:04;;;;;;;14.68;10.82;;;;;;;14.49;100.00;101489.19;5087792;28;20096;-80
2022/07/23 03:50:30;;;;;;;21.13;10.93;;;;;;;14.51;100.00;101493.59;5080102;28;20036;-79
2022/07/23 03:52:56;;;;;;;15.40;10.77;;;;;;;14.46;100.00;101498.63;5100213;28;20036;-79
2022/07/23 03:55:21;;;;;;;16.15;10.32;;;;;;;14.50;100.00;101500.09;5088627;28;20028;-80
2022/07/23 03:57:47;;;;;;;16.60;11.43;;;;;;;14.50;100.00;101488.22;5069049;28;20032;-79
2022/07/23 04:00:13;;;;;;;15.68;11.18;;;;;;;14.46;100.00;101498.63;5074272;28;20032;-78
2022/07/23 04:02:39;;;;;;;18.85;11.43;;;;;;;14.52;100.00;101491.69;5115306;28;20554;-78
2022/07/23 04:05:06;;;;;;;19.05;10.77;;;;;;;14.60;100.00;101496.59;5097183;28;20028;-80
2022/07/23 04:07:31;;;;;;;12.38;10.38;;;;;;;14.47;100.00;101494.84;5082484;28;20036;-80
2022/07/23 04:09:57;;;;;;;19.35;11.40;;;;;;;14.35;100.00;101484.88;5091481;28;20028;-80
2022/07/23 04:12:23;;;;;;;15.63;10.88;;;;;;;14.44;100.00;101494.25;5072270;28;20094;-79
2022/07/23 04:14:49;;;;;;;15.70;10.85;;;;;;;14.44;100.00;101497.84;5086210;28;20040;-79
2022/07/23 04:17:15;;;;;;;21.65;11.07;;;;;;;14.51;100.00;101488.09;5095143;28;20126;-78
2022/07/23 04:19:43;;;;;;;18.92;11.32;;;;;;;14.46;100.00;101486.72;5098428;28;20024;-80
2022/07/23 04:22:10;;;;;;;19.33;11.95;;;;;;;14.46;100.00;101482.09;5088596;28;20034;-78
2022/07/23 04:24:35;;;;;;;23.92;11.45;;;;;;;14.39;100.00;101482.75;5110581;28;20149;-81
2022/07/23 04:27:01;;;;;;;19.50;11.55;;;;;;;14.48;100.00;101491.09;5086200;28;20111;-78
2022/07/23 04:29:26;;;;;;;17.30;11.30;;;;;;;14.50;100.00;101488.22;5113878;28;20048;-81
2022/07/23 04:31:52;;;;;;;20.27;11.18;;;;;;;14.49;100.00;101489.19;5076083;28;20470;-80
2022/07/23 04:34:18;;;;;;;20.70;11.40;;;;;;;14.61;100.00;101496.47;5072148;28;20278;-81
2022/07/23 04:36:44;;;;;;;20.10;10.75;;;;;;;14.68;100.00;101502.31;5069771;28;20085;-80
2022/07/23 04:39:09;;;;;;;16.90;10.95;;;;;;;14.61;100.00;101506.59;5102922;28;20073;-80
2022/07/23 04:41:35;;;;;;;15.32;10.82;;;;;;;14.68;100.00;101505.94;5101937;28;20059;-80
2022/07/23 04:44:02;;;;;;;18.65;11.40;;;;;;;14.62;100.00;101502.84;5084540;28;20031;-80
2022/07/23 04:46:28;;;;;;;19.80;11.25;;;;;;;14.60;100.00;101524.16;5094674;28;20418;-81
2022/07/23 04:48:54;;;;;;;18.42;10.75;;;;;;;14.66;100.00;101523.63;5073468;28;20032;-80
2022/07/23 04:51:19;;;;;;;21.85;10.80;;;;;;;14.77;100.00;101526.31;5070418;28;20522;-78
2022/07/23 04:53:45;;;;;;;19.77;11.10;;;;;;;14.78;100.00;101519.81;5091906;28;20023;-78
2022/07/23 04:56:11;;;;;;;18.08;12.45;;;;;;;14.84;100.00;101521.19;5084319;28;20051;-78
2022/07/23 04:58:36;;;;;;;18.55;10.93;;;;;;;14.92;100.00;101529.66;5100295;28;20032;-78
2022/07/23 05:01:02;;;;;;;17.13;11.02;;;;;;;14.91;100.00;101532.53;5079106;28;20020;-79
2022/07/23 05:03:28;;;;;;;17.13;10.50;;;;;;;14.89;100.00;101533.53;5096665;28;20079;-79
2022/07/23 05:05:54;;;;;;;19.65;11.40;;;;;;;14.97;100.00;101529.22;5068106;28;20034;-79
2022/07/23 05:08:19;;;;;;;20.38;10.88;;;;;;;15.03;100.00;101537.84;5080316;28;20087;-80
2022/07/23 05:10:45;;;;;;;19.15;10.82;;;;;;;15.10;100.00;101535.41;5094108;28;20046;-79
2022/07/23 05:13:11;;;;;;;20.17;11.23;;;;;;;15.21;100.00;101542.75;5063483;28;20085;-79
2022/07/23 05:15:36;;;;;;;18.52;12.25;;;;;;;15.12;100.00;101541.69;5092992;28;20034;-80
2022/07/23 05:18:02;;;;;;;18.73;11.75;;;;;;;15.17;100.00;101531.13;5112646;28;20047;-78
2022/07/23 05:20:27;;;;;;;19.20;11.45;;;;;;;15.25;100.00;101536.84;5094687;28;20063;-80
2022/07/23 05:22:53;;;;;;;19.02;11.70;;;;;;;15.28;100.00;101540.34;5069222;28;20071;-80
2022/07/23 05:25:19;;;;;;;19.20;11.63;;;;;;;15.34;100.00;101548.94;5058428;28;20064;-81
2022/07/23 05:27:44;;;;;;;18.50;10.95;;;;;;;15.40;100.00;101544.78;5082593;28;20082;-78
2022/07/23 05:30:10;;;;;;;15.80;10.73;;;;;;;15.49;100.00;101555.00;5074829;28;20491;-77
2022/07/23 05:32:36;;;;;;;18.48;10.85;;;;;;;15.66;100.00;101559.03;5111997;28;20088;-78
2022/07/23 05:35:04;;;;;;;20.05;11.45;;;;;;;15.71;100.00;101567.75;5082898;28;20043;-80
2022/07/23 05:37:29;;;;;;;23.40;11.52;;;;;;;15.90;100.00;101569.75;5116286;28;20093;-80
2022/07/23 05:39:55;;;;;;;24.70;10.73;;;;;;;15.98;100.00;101567.16;5080740;28;20028;-79
2022/07/23 05:42:20;;;;;;;17.38;10.00;;;;;;;16.23;100.00;101575.97;5096701;28;20061;-78
2022/07/23 05:44:46;;;;;;;21.55;10.52;;;;;;;16.13;100.00;101572.31;5078544;28;20035;-78
2022/07/23 05:47:11;;;;;;;18.00;9.98;;;;;;;16.49;100.00;101576.34;5077962;28;20040;-80
2022/07/23 05:49:38;;;;;;;17.77;10.55;;;;;;;16.51;100.00;101582.63;5080516;28;20052;-79
2022/07/23 05:52:07;;;;;;;18.80;10.45;;;;;;;16.69;100.00;101581.91;5112552;28;20031;-79
2022/07/23 05:54:36;;;;;;;15.48;11.15;;;;;;;16.81;100.00;101578.00;5078244;28;20039;-79
2022/07/23 05:57:02;;;;;;;18.77;10.75;;;;;;;17.25;100.00;101580.38;5058460;28;20091;-79
2022/07/23 05:59:27;;;;;;;13.70;10.45;;;;;;;17.07;100.00;101581.09;5063566;28;20036;-80
2022/07/23 06:01:53;;;;;;;16.85;10.02;;;;;;;17.48;100.00;101578.13;5076052;28;20047;-77
2022/07/23 06:04:18;;;;;;;13.80;10.10;;;;;;;17.49;100.00;101582.63;5078505;28;20094;-79
2022/07/23 06:06:44;;;;;;;16.50;10.40;;;;;;;17.91;100.00;101586.94;5093931;28;20040;-78
2022/07/23 06:09:13;;;;;;;15.93;8.75;;;;;;;18.42;100.00;101592.97;5116927;28;20087;-78
2022/07/23 06:11:38;;;;;;;13.35;9.70;;;;;;;18.11;100.00;101585.81;5063611;28;20081;-79
2022/07/23 06:14:04;;;;;;;15.10;8.85;;;;;;;18.41;100.00;101586.53;5112397;28;20483;-77
2022/07/23 06:16:30;;;;;;;14.27;9.10;;;;;;;18.06;100.00;101581.75;5094670;28;20039;-78
2022/07/23 06:18:55;;;;;;;12.75;8.65;;;;;;;17.99;100.00;101574.06;5059892;28;20035;-78
2022/07/23 06:21:21;;;;;;;11.27;8.38;;;;;;;18.68;100.00;101584.78;5098742;28;20581;-78
2022/07/23 06:23:46;;;;;;;13.82;9.25;;;;;;;18.74;100.00;101589.66;5110535;28;20040;-77
2022/07/23 06:26:12;;;;;;;11.48;8.45;;;;;;;18.88;100.00;101585.53;5105579;28;20036;-78
2022/07/23 06:28:37;;;;;;;13.55;8.48;;;;;;;18.90;100.00;101589.88;5096484;28;20180;-78
2022/07/23 06:31:03;;;;;;;14.35;9.15;;;;;;;18.89;100.00;101602.00;5087049;28;20106;-77
2022/07/23 06:33:28;;;;;;;13.75;9.23;;;;;;;19.07;100.00;101593.69;5059465;28;20398;-77
2022/07/23 06:35:54;;;;;;;12.40;8.15;;;;;;;19.13;100.00;101607.97;5097139;28;20028;-79
2022/07/23 06:38:19;;;;;;;15.98;7.88;;;;;;;19.59;100.00;101598.44;5078799;28;20031;-77
2022/07/23 06:40:45;;;;;;;10.23;6.50;;;;;;;20.17;100.00;101593.28;5089191;28;20507;-78
2022/07/23 06:43:11;;;;;;;12.60;7.82;;;;;;;20.10;100.00;101600.53;5079210;28;20063;-78
2022/07/23 06:45:36;;;;;;;7.85;5.78;;;;;;;19.80;100.00;101592.53;5096819;28;20035;-77
2022/07/23 06:48:03;;;;;;;11.73;6.00;;;;;;;20.57;100.00;101595.31;5085473;28;20036;-77
2022/07/23 06:50:29;;;;;;;6.90;5.50;;;;;;;20.75;100.00;101599.94;5089282;28;20158;-77
2022/07/23 06:52:55;;;;;;;6.13;4.88;;;;;;;20.59;100.00;101588.72;5110848;28;20410;-77
2022/07/23 06:55:20;;;;;;;12.68;4.80;;;;;;;20.77;100.00;101605.34;5091579;28;20053;-78
2022/07/23 06:57:47;;;;;;;11.63;6.00;;;;;;;20.57;100.00;101597.25;5099378;28;20393;-78
2022/07/23 07:00:13;;;;;;;6.70;5.47;;;;;;;20.59;100.00;101602.66;5078237;28;20032;-77
2022/07/23 07:02:38;;;;;;;11.30;5.72;;;;;;;20.75;100.00;101599.94;5061833;28;20035;-78
2022/07/23 07:05:04;;;;;;;7.25;4.72;;;;;;;21.09;100.00;101590.59;5055758;28;20690;-77
2022/07/23 07:07:30;;;;;;;5.43;4.47;;;;;;;20.86;100.00;101598.75;5095604;28;20034;-77
2022/07/23 07:09:55;;;;;;;4.55;3.38;;;;;;;20.98;100.00;101610.44;5103520;28;20039;-76
2022/07/23 07:12:21;;;;;;;11.98;3.75;;;;;;;20.84;100.00;101604.50;5108329;28;20490;-78
2022/07/23 07:14:46;;;;;;;7.30;3.40;;;;;;;21.41;100.00;101600.88;5058645;28;20071;-78
2022/07/23 07:17:11;;;;;;;8.18;4.22;;;;;;;21.62;100.00;101605.06;5075746;28;20042;-77
2022/07/23 07:19:37;;;;;;;8.35;4.30;;;;;;;22.17;100.00;101604.25;5096394;28;20023;-79
2022/07/23 07:22:03;;;;;;;8.20;4.15;;;;;;;21.88;100.00;101607.66;5116737;28;20024;-78
2022/07/23 07:24:28;;;;;;;7.63;3.45;;;;;;;22.43;100.00;101605.94;5075714;28;20036;-77
2022/07/23 07:26:54;;;;;;;9.05;4.25;;;;;;;21.82;100.00;101602.78;5057490;28;20036;-77
2022/07/23 07:29:19;;;;;;;6.05;3.70;;;;;;;21.97;100.00;101606.59;5113091;28;20100;-77
2022/07/23 07:31:45;;;;;;;7.30;3.75;;;;;;;22.15;100.00;101611.94;5092462;28;20359;-77
2022/07/23 07:34:10;;;;;;;7.65;3.80;;;;;;;22.47;100.00;101607.28;5094861;28;20085;-77
2022/07/23 07:36:37;;;;;;;6.72;3.50;;;;;;;22.36;100.00;101604.91;5115824;28;20035;-77
2022/07/23 07:39:06;;;;;;;6.13;3.30;;;;;;;22.72;100.00;101602.44;5080673;28;20483;-76
2022/07/23 07:41:32;;;;;;;5.05;3.30;;;;;;;22.28;100.00;101604.91;5094044;28;20505;-77
2022/07/23 07:43:57;;;;;;;5.47;3.60;;;;;;;22.42;100.00;101606.13;5095590;28;20162;-77
2022/07/23 07:46:23;;;;;;;7.82;3.40;;;;;;;22.62;100.00;101596.22;5097000;28;20444;-77
2022/07/23 07:48:50;;;;;;;8.27;3.55;;;;;;;22.68;100.00;101612.25;5098467;28;20032;-77
2022/07/23 07:51:16;;;;;;;6.88;3.63;;;;;;;22.77;100.00;101613.06;5082439;28;20039;-77
2022/07/23 07:53:42;;;;;;;6.10;3.03;;;;;;;23.64;98.36;101620.28;5113344;28;20378;-77
2022/07/23 07:56:07;;;;;;;8.35;2.97;;;;;;;24.21;96.48;101618.84;5072710;28;20057;-76
2022/07/23 07:58:33;;;;;;;8.18;3.33;;;;;;;23.37;97.70;101613.41;5060926;28;20032;-76
2022/07/23 08:00:58;;;;;;;5.47;3.92;;;;;;;21.75;100.00;101619.34;5080548;28;20046;-76
2022/07/23 08:03:24;;;;;;;4.13;3.60;;;;;;;21.92;100.00;101619.31;5068906;28;20332;-76
2022/07/23 08:05:49;;;;;;;5.45;3.65;;;;;;;22.28;100.00;101619.72;5092588;28;20036;-77
2022/07/23 08:08:15;;;;;;;7.07;3.45;;;;;;;22.69;100.00;101630.72;5089575;28;20062;-76
2022/07/23 08:10:41;;;;;;;7.40;3.55;;;;;;;22.84;100.00;101616.00;5113468;28;20024;-77
2022/07/23 08:13:07;;;;;;;4.85;3.45;;;;;;;22.95;99.33;101618.38;5097516;28;20039;-76
2022/07/23 08:15:33;;;;;;;5.28;3.05;;;;;;;23.84;97.29;101617.84;5098908;28;20118;-76
2022/07/23 08:17:59;;;;;;;4.15;3.47;;;;;;;23.21;98.96;101625.56;5116949;28;20217;-77
2022/07/23 08:20:25;;;;;;;4.60;3.10;;;;;;;23.46;95.32;101621.53;5089714;28;20028;-76
2022/07/23 08:22:52;;;;;;;5.85;3.22;;;;;;;23.24;98.62;101634.44;5079830;28;20028;-76
2022/07/23 08:25:24;;;;;;;8.55;3.38;;;;;;;22.54;100.00;101624.19;5117172;28;20391;-76
2022/07/23 08:27:50;;;;;;;6.90;3.53;;;;;;;22.55;99.23;101629.59;5112117;28;20432;-76
2022/07/23 08:30:16;;;;;;;6.65;3.67;;;;;;;21.90;100.00;101627.00;5112346;28;20060;-76
2022/07/23 08:32:52;;;;;;;5.15;3.35;;;;;;;22.52;100.00;101626.28;5089661;28;20419;-75
2022/07/23 08:35:22;;;;;;;8.23;3.55;;;;;;;23.30;98.24;101630.91;5087704;28;20491;-75
2022/07/23 08:37:47;;;;;;;8.32;3.88;;;;;;;23.23;97.85;101626.25;5095417;28;20044;-76
2022/07/23 08:40:13;;;;;;;6.38;3.58;;;;;;;23.22;98.58;101625.38;5065242;28;20031;-76
2022/07/23 08:42:39;;;;;;;8.75;3.38;;;;;;;24.30;94.54;101628.00;5083162;28;20044;-76
2022/07/23 08:45:07;;;;;;;6.57;3.10;;;;;;;24.59;91.49;101625.22;5096709;28;20043;-76
2022/07/23 08:47:34;;;;;;;7.60;3.20;;;;;;;24.49;90.84;101630.22;5113794;28;20032;-76
2022/07/23 08:50:01;;;;;;;13.20;3.80;;;;;;;24.58;89.16;101622.63;5076317;28;20039;-76
2022/07/23 08:52:27;;;;;;;9.75;4.03;;;;;;;24.31;92.32;101629.75;5094721;28;20112;-77
2022/07/23 08:54:54;;;;;;;4.57;3.50;;;;;;;24.37;90.80;101632.66;5079411;28;20050;-76
2022/07/23 08:57:20;;;;;;;8.02;3.85;;;;;;;24.45;90.50;101631.69;5106517;28;20112;-77
2022/07/23 08:59:45;;;;;;;4.90;3.85;;;;;;;25.00;88.32;101628.50;5069730;28;20118;-77
2022/07/23 09:02:12;;;;;;;7.18;3.08;;;;;;;24.50;91.62;101631.13;5097388;28;20796;-77
2022/07/23 09:04:37;;;;;;;7.03;3.50;;;;;;;24.78;86.95;101639.69;5061460;28;20044;-77
2022/07/23 09:07:03;;;;;;;7.57;4.50;;;;;;;23.13;95.96;101632.94;5102100;28;20484;-77
2022/07/23 09:09:30;;;;;;;6.47;4.10;;;;;;;23.43;94.95;101633.06;5082054;28;20054;-77
2022/07/23 09:12:04;;;;;;;7.57;4.00;;;;;;;23.97;92.96;101626.47;5113226;28;20087;-76
2022/07/23 09:14:41;;;;;;;5.30;2.95;;;;;;;24.97;89.06;101632.56;5079972;28;20050;-76
2022/07/23 09:17:12;;;;;;;3.95;2.90;;;;;;;25.29;83.97;101645.25;5095019;28;20031;-76
2022/07/23 09:19:38;;;;;;;5.55;3.80;;;;;;;24.98;84.75;101645.53;5105030;28;20118;-76
2022/07/23 09:22:26;;;;;;;4.43;3.00;;;;;;;25.89;80.53;101636.50;5083444;28;20032;-75
2022/07/23 09:25:07;;;;;;;3.97;2.78;;;;;;;25.73;78.87;101634.00;5095591;28;20080;-76
2022/07/23 09:27:54;;;;;;;5.15;2.85;;;;;;;26.01;75.21;101634.03;5107695;28;20031;-76
2022/07/23 09:30:28;;;;;;;5.00;3.50;;;;;;;24.76;81.11;101633.44;5095810;28;20055;-76
2022/07/23 09:33:11;;;;;;;5.15;3.58;;;;;;;24.94;81.12;101639.47;5088649;28;20061;-76
2022/07/23 09:35:53;;;;;;;7.68;4.15;;;;;;;24.49;82.21;101635.81;5092353;28;20031;-76
2022/07/23 09:38:21;;;;;;;6.40;3.40;;;;;;;25.03;83.75;101630.94;5113226;28;20077;-77
2022/07/23 09:41:05;;;;;;;6.25;3.35;;;;;;;24.65;87.18;101622.72;5116730;28;20027;-77
2022/07/23 09:43:31;;;;;;;3.67;3.30;;;;;;;24.66;84.91;101628.13;5098624;28;20021;-77
2022/07/23 09:46:26;;;;;;;3.22;2.90;;;;;;;24.86;81.12;101631.16;5067965;28;20033;-77
2022/07/23 09:48:59;;;;;;;5.63;2.85;;;;;;;24.85;85.20;101634.16;5082714;28;20031;-77
2022/07/23 09:53:53;;;;;;;13.18;3.95;;;;;;;24.10;85.74;101636.13;5103125;28;20548;-77
2022/07/23 09:56:20;;;;;;;7.78;3.20;;;;;;;24.92;84.12;101637.91;5114406;28;20031;-77
2022/07/23 09:58:50;;;;;;;5.25;3.85;;;;;;;24.47;78.70;101634.31;5087441;28;20105;-77
2022/07/23 10:01:16;;;;;;;4.20;3.30;;;;;;;24.79;79.21;101640.53;5089525;28;20424;-77
2022/07/23 10:03:42;;;;;;;6.70;3.10;;;;;;;24.88;80.03;101640.25;5101422;28;20036;-77
2022/07/23 10:06:13;;;;;;;8.70;3.35;;;;;;;24.50;80.43;101643.16;5117697;28;20032;-77
2022/07/23 10:08:41;;;;;;;5.43;3.58;;;;;;;24.73;76.69;101639.41;5119089;28;20479;-77
2022/07/23 10:11:08;;;;;;;4.97;3.83;;;;;;;24.84;82.60;101640.81;5119074;28;20027;-77
2022/07/23 10:13:54;;;;;;;7.03;3.80;;;;;;;24.80;79.83;101647.91;5084352;28;20046;-77
2022/07/23 10:16:21;;;;;;;5.13;3.90;;;;;;;24.88;80.17;101644.97;5122532;28;20095;-77
2022/07/23 10:18:47;;;;;;;5.35;3.33;;;;;;;25.01;78.11;101642.34;5093873;28;20145;-78
2022/07/23 10:21:35;;;;;;;6.97;3.33;;;;;;;24.89;81.91;101632.69;5103378;28;20582;-77
2022/07/23 10:24:20;;;;;;;4.53;3.80;;;;;;;25.04;81.09;101638.25;5107117;28;20031;-77
2022/07/23 10:26:58;;;;;;;5.53;4.40;;;;;;;25.62;75.12;101625.06;5101431;28;20031;-77
2022/07/23 10:29:47;;;;;;;9.15;4.05;;;;;;;24.78;78.80;101625.69;5092580;28;20040;-77
2022/07/23 10:32:30;;;;;;;5.38;3.50;;;;;;;25.17;82.02;101635.63;5103774;28;20058;-77
2022/07/23 10:35:08;;;;;;;5.95;4.00;;;;;;;25.34;79.13;101638.19;5119968;28;20031;-77
2022/07/23 10:37:47;;;;;;;8.40;4.30;;;;;;;25.30;81.48;101632.09;5085558;28;20479;-78
2022/07/23 10:40:19;;;;;;;6.32;4.00;;;;;;;24.91;80.20;101637.03;5109265;28;20099;-77
2022/07/23 10:42:48;;;;;;;7.78;4.07;;;;;;;25.16;80.66;101630.22;5114375;28;20047;-77
2022/07/23 10:45:23;;;;;;;5.22;4.25;;;;;;;24.88;80.63;101628.16;5085277;28;20034;-78
2022/07/23 10:47:50;;;;;;;9.55;4.55;;;;;;;25.27;78.70;101626.91;5105401;28;20032;-77
2022/07/23 10:50:24;;;;;;;6.38;3.88;;;;;;;25.27;79.00;101629.72;5095653;28;20456;-78
2022/07/23 10:53:05;;;;;;;5.93;4.18;;;;;;;25.39;74.26;101638.44;5103813;28;20038;-77
2022/07/23 10:55:30;;;;;;;8.43;3.80;;;;;;;26.21;69.83;101635.03;5102762;28;20031;-78
2022/07/23 10:57:56;;;;;;;5.88;3.95;;;;;;;25.46;74.84;101637.44;5102099;28;20031;-77
2022/07/23 11:00:24;;;;;;;6.00;4.18;;;;;;;26.00;71.97;101633.16;5099982;28;20543;-77
2022/07/23 11:02:58;;;;;;;14.35;3.88;;;;;;;25.41;74.21;101637.16;5066904;28;20036;-77
2022/07/23 11:05:38;;;;;;;5.93;3.40;;;;;;;25.88;72.36;101628.31;5090641;28;20105;-77
2022/07/23 11:08:04;;;;;;;3.92;3.47;;;;;;;25.55;73.76;101637.28;5104752;28;20023;-78
2022/07/23 11:10:33;;;;;;;7.80;3.17;;;;;;;25.36;73.17;101636.91;5087233;28;20101;-76
2022/07/23 11:13:21;;;;;;;7.18;3.80;;;;;;;26.15;68.49;101638.66;5117474;28;20084;-77
2022/07/23 11:16:10;;;;;;;4.78;2.83;;;;;;;25.77;71.50;101633.38;5117929;28;20031;-77